DLH521 EHRD-LGAV
Flight info
| Callsign | DLH521 |
|---|---|
| Flight time | 3h 6m |
| Altitude | 39000 |
| Route | LUNIX Z739 MISGO DCT DOJOH DCT DODEN DCT NEGIX DCT DINKU M867 XERUM DCT BAVAX DCT RADIZ DCT NEMEK DCT GLOMY DCT INLOT DCT PINDO UL607 XORKI |
| Aircraft | A20N/M-V/N |
Departure
| Time | 2026-05-07 15:50 |
|---|---|
| Airport | Rotterdam The Hague Airport (EHRD) |
Arrival
| Time | 2026-05-07 18:56 |
|---|---|
| Airport | Athens Eleftherios Venizelos International Airport (LGAV) |
| Time | Latitude | Longitude | Altitude | Speed | Heading |
|---|---|---|---|---|---|
| 2026-05-07 15:38 | 51.95043 | 4.43558 | 0 ft | 0 kts | 327° |
| 2026-05-07 15:46 | 51.95065 | 4.43545 | 0 ft | 6 kts | 358° |
| 2026-05-07 15:47 | 51.95105 | 4.43599 | 0 ft | 9 kts | 55° |
| 2026-05-07 15:47 | 51.95144 | 4.43606 | 0 ft | 6 kts | 342° |
| 2026-05-07 15:47 | 51.95181 | 4.43536 | 0 ft | 11 kts | 282° |
| 2026-05-07 15:47 | 51.95235 | 4.43439 | 0 ft | 12 kts | 303° |
| 2026-05-07 15:48 | 51.95210 | 4.43316 | 0 ft | 13 kts | 238° |
| 2026-05-07 15:48 | 51.95157 | 4.43180 | 0 ft | 15 kts | 239° |
| 2026-05-07 15:48 | 51.95121 | 4.43065 | 0 ft | 0 kts | 244° |
| 2026-05-07 15:48 | 51.95121 | 4.42953 | 0 ft | 15 kts | 296° |
| 2026-05-07 15:49 | 51.95212 | 4.42867 | 2 ft | 14 kts | 12° |
| 2026-05-07 15:49 | 51.95244 | 4.42912 | 2 ft | 1 kts | 50° |
| 2026-05-07 15:49 | 51.95343 | 4.43163 | 1 ft | 68 kts | 57° |
| 2026-05-07 15:49 | 51.95748 | 4.44165 | 0 ft | 140 kts | 57° |
| 2026-05-07 15:50 | 51.96355 | 4.45683 | 265 ft | 171 kts | 57° |
| 2026-05-07 15:50 | 51.96995 | 4.47318 | 483 ft | 178 kts | 57° |
| 2026-05-07 15:50 | 51.97681 | 4.49152 | 782 ft | 201 kts | 60° |
| 2026-05-07 15:50 | 51.98360 | 4.51181 | 1427 ft | 213 kts | 62° |
| 2026-05-07 15:51 | 51.99063 | 4.53443 | 2010 ft | 235 kts | 64° |
| 2026-05-07 15:51 | 51.99841 | 4.55920 | 2474 ft | 258 kts | 56° |
| 2026-05-07 15:51 | 52.01079 | 4.57972 | 2578 ft | 260 kts | 32° |
| 2026-05-07 15:51 | 52.02705 | 4.59253 | 2695 ft | 261 kts | 23° |
| 2026-05-07 15:52 | 52.04348 | 4.60503 | 2789 ft | 261 kts | 30° |
| 2026-05-07 15:52 | 52.05816 | 4.62247 | 2906 ft | 262 kts | 42° |
| 2026-05-07 15:52 | 52.07091 | 4.64376 | 2922 ft | 264 kts | 46° |
| 2026-05-07 15:52 | 52.08367 | 4.66543 | 3130 ft | 266 kts | 46° |
| 2026-05-07 15:53 | 52.09656 | 4.68716 | 3883 ft | 267 kts | 46° |
| 2026-05-07 15:53 | 52.10943 | 4.70883 | 5015 ft | 267 kts | 45° |
| 2026-05-07 15:53 | 52.12241 | 4.73072 | 5996 ft | 271 kts | 46° |
| 2026-05-07 15:53 | 52.13503 | 4.75379 | 6961 ft | 275 kts | 57° |
| 2026-05-07 15:54 | 52.14174 | 4.78295 | 7892 ft | 280 kts | 84° |
| 2026-05-07 15:54 | 52.14024 | 4.81451 | 8805 ft | 284 kts | 102° |
| 2026-05-07 15:54 | 52.13543 | 4.84586 | 9730 ft | 287 kts | 105° |
| 2026-05-07 15:54 | 52.12995 | 4.87762 | 10506 ft | 298 kts | 106° |
| 2026-05-07 15:55 | 52.12417 | 4.91149 | 10867 ft | 322 kts | 105° |
| 2026-05-07 15:55 | 52.11819 | 4.94787 | 11283 ft | 340 kts | 105° |
| 2026-05-07 15:55 | 52.11226 | 4.98502 | 12076 ft | 345 kts | 104° |
| 2026-05-07 15:55 | 52.10627 | 5.02304 | 12902 ft | 349 kts | 104° |
| 2026-05-07 15:56 | 52.10020 | 5.06161 | 13691 ft | 353 kts | 104° |
| 2026-05-07 15:56 | 52.09409 | 5.10049 | 14462 ft | 357 kts | 104° |
| 2026-05-07 15:56 | 52.08787 | 5.13992 | 15217 ft | 361 kts | 104° |
| 2026-05-07 15:56 | 52.08159 | 5.17969 | 15946 ft | 365 kts | 104° |
| 2026-05-07 15:57 | 52.07521 | 5.21990 | 16656 ft | 369 kts | 104° |
| 2026-05-07 15:57 | 52.06876 | 5.26041 | 17341 ft | 373 kts | 104° |
| 2026-05-07 15:57 | 52.06221 | 5.30152 | 17998 ft | 377 kts | 104° |
| 2026-05-07 15:57 | 52.05558 | 5.34301 | 18662 ft | 381 kts | 104° |
| 2026-05-07 15:58 | 52.04887 | 5.38487 | 19301 ft | 385 kts | 104° |
| 2026-05-07 15:58 | 52.04438 | 5.41286 | 19720 ft | 387 kts | 104° |
| 2026-05-07 15:58 | 52.03755 | 5.45530 | 20334 ft | 391 kts | 105° |
| 2026-05-07 15:58 | 52.03061 | 5.49831 | 20935 ft | 394 kts | 105° |
| 2026-05-07 15:59 | 52.02362 | 5.54149 | 21517 ft | 398 kts | 105° |
| 2026-05-07 15:59 | 52.01655 | 5.58513 | 22087 ft | 401 kts | 105° |
| 2026-05-07 15:59 | 52.00940 | 5.62909 | 22643 ft | 405 kts | 105° |
| 2026-05-07 15:59 | 52.00215 | 5.67351 | 23190 ft | 408 kts | 105° |
| 2026-05-07 16:00 | 51.99485 | 5.71816 | 23716 ft | 412 kts | 105° |
| 2026-05-07 16:00 | 51.98745 | 5.76334 | 24236 ft | 415 kts | 105° |
| 2026-05-07 16:00 | 51.97848 | 5.80797 | 24723 ft | 418 kts | 113° |
| 2026-05-07 16:00 | 51.96511 | 5.85017 | 25207 ft | 421 kts | 122° |
| 2026-05-07 16:01 | 51.94766 | 5.88839 | 25671 ft | 424 kts | 131° |
| 2026-05-07 16:01 | 51.92842 | 5.92390 | 26115 ft | 427 kts | 131° |
| 2026-05-07 16:01 | 51.90857 | 5.96073 | 26564 ft | 430 kts | 131° |
| 2026-05-07 16:01 | 51.88888 | 5.99733 | 26985 ft | 432 kts | 131° |
| 2026-05-07 16:02 | 51.86906 | 6.03418 | 27397 ft | 435 kts | 131° |
| 2026-05-07 16:02 | 51.84937 | 6.07072 | 27781 ft | 438 kts | 131° |
| 2026-05-07 16:02 | 51.82922 | 6.10787 | 28167 ft | 440 kts | 131° |
| 2026-05-07 16:02 | 51.80893 | 6.14510 | 28530 ft | 443 kts | 131° |
| 2026-05-07 16:03 | 51.78849 | 6.18253 | 28883 ft | 445 kts | 131° |
| 2026-05-07 16:03 | 51.76787 | 6.22024 | 29223 ft | 448 kts | 131° |
| 2026-05-07 16:03 | 51.74723 | 6.25795 | 29540 ft | 450 kts | 131° |
| 2026-05-07 16:03 | 51.72641 | 6.29589 | 29872 ft | 452 kts | 131° |
| 2026-05-07 16:04 | 51.70545 | 6.33406 | 30194 ft | 455 kts | 131° |
| 2026-05-07 16:04 | 51.68442 | 6.37230 | 30507 ft | 457 kts | 131° |
| 2026-05-07 16:04 | 51.66322 | 6.41079 | 30833 ft | 459 kts | 131° |
| 2026-05-07 16:04 | 51.64197 | 6.44930 | 31167 ft | 461 kts | 131° |
| 2026-05-07 16:05 | 51.62065 | 6.48789 | 31543 ft | 461 kts | 131° |
| 2026-05-07 16:05 | 51.59933 | 6.52645 | 31961 ft | 460 kts | 131° |
| 2026-05-07 16:05 | 51.57807 | 6.56484 | 32362 ft | 459 kts | 132° |
| 2026-05-07 16:05 | 51.55682 | 6.60317 | 32746 ft | 458 kts | 132° |
| 2026-05-07 16:06 | 51.53562 | 6.64134 | 33119 ft | 458 kts | 132° |
| 2026-05-07 16:06 | 51.51445 | 6.67940 | 33479 ft | 457 kts | 132° |
| 2026-05-07 16:06 | 51.49331 | 6.71734 | 33826 ft | 456 kts | 132° |
| 2026-05-07 16:06 | 51.47245 | 6.75473 | 34155 ft | 455 kts | 132° |
| 2026-05-07 16:07 | 51.45130 | 6.79257 | 34479 ft | 455 kts | 132° |
| 2026-05-07 16:07 | 51.43020 | 6.83028 | 34789 ft | 454 kts | 132° |
| 2026-05-07 16:07 | 51.40909 | 6.86792 | 35082 ft | 454 kts | 133° |
| 2026-05-07 16:07 | 51.38687 | 6.90366 | 35371 ft | 453 kts | 136° |
| 2026-05-07 16:08 | 51.36422 | 6.93876 | 35644 ft | 452 kts | 136° |
| 2026-05-07 16:08 | 51.34166 | 6.97379 | 35902 ft | 452 kts | 136° |
| 2026-05-07 16:08 | 51.31909 | 7.00881 | 36141 ft | 452 kts | 136° |
| 2026-05-07 16:08 | 51.29651 | 7.04381 | 36383 ft | 452 kts | 136° |
| 2026-05-07 16:09 | 51.27394 | 7.07873 | 36591 ft | 452 kts | 136° |
| 2026-05-07 16:09 | 51.25136 | 7.11361 | 36803 ft | 452 kts | 136° |
| 2026-05-07 16:09 | 51.22870 | 7.14856 | 37013 ft | 452 kts | 136° |
| 2026-05-07 16:09 | 51.20604 | 7.18346 | 37202 ft | 453 kts | 136° |
| 2026-05-07 16:10 | 51.18338 | 7.21831 | 37405 ft | 452 kts | 136° |
| 2026-05-07 16:10 | 51.16068 | 7.25317 | 37575 ft | 453 kts | 136° |
| 2026-05-07 16:10 | 51.13797 | 7.28799 | 37757 ft | 453 kts | 136° |
| 2026-05-07 16:10 | 51.11529 | 7.32271 | 37942 ft | 453 kts | 136° |
| 2026-05-07 16:11 | 51.09259 | 7.35744 | 38114 ft | 453 kts | 136° |
| 2026-05-07 16:11 | 51.06988 | 7.39210 | 38277 ft | 453 kts | 136° |
| 2026-05-07 16:11 | 51.04716 | 7.42675 | 38445 ft | 452 kts | 136° |
| 2026-05-07 16:11 | 51.02447 | 7.46129 | 38591 ft | 453 kts | 136° |
| 2026-05-07 16:12 | 51.00175 | 7.49584 | 38738 ft | 453 kts | 136° |
| 2026-05-07 16:12 | 50.97896 | 7.53043 | 38894 ft | 452 kts | 136° |
| 2026-05-07 16:12 | 50.95621 | 7.56492 | 38995 ft | 452 kts | 136° |
| 2026-05-07 16:13 | 50.91101 | 7.63330 | 39005 ft | 452 kts | 136° |
| 2026-05-07 16:13 | 50.86548 | 7.70198 | 38998 ft | 452 kts | 136° |
| 2026-05-07 16:14 | 50.81993 | 7.77046 | 39006 ft | 452 kts | 137° |
| 2026-05-07 16:14 | 50.77423 | 7.83855 | 38998 ft | 451 kts | 137° |
| 2026-05-07 16:15 | 50.72838 | 7.90666 | 38989 ft | 452 kts | 137° |
| 2026-05-07 16:15 | 50.68248 | 7.97470 | 38994 ft | 453 kts | 137° |
| 2026-05-07 16:16 | 50.63654 | 8.04261 | 38993 ft | 453 kts | 137° |
| 2026-05-07 16:16 | 50.59209 | 8.11301 | 39005 ft | 453 kts | 130° |
| 2026-05-07 16:17 | 50.55266 | 8.19054 | 39005 ft | 454 kts | 128° |
| 2026-05-07 16:17 | 50.51370 | 8.26741 | 38998 ft | 451 kts | 129° |
| 2026-05-07 16:18 | 50.47447 | 8.34430 | 39001 ft | 452 kts | 129° |
| 2026-05-07 16:18 | 50.43506 | 8.42125 | 39005 ft | 452 kts | 129° |
| 2026-05-07 16:19 | 50.39556 | 8.49814 | 39007 ft | 453 kts | 129° |
| 2026-05-07 16:19 | 50.35416 | 8.57246 | 39010 ft | 453 kts | 133° |
| 2026-05-07 16:20 | 50.31110 | 8.64438 | 39008 ft | 453 kts | 133° |
| 2026-05-07 16:20 | 50.26806 | 8.71635 | 39013 ft | 452 kts | 133° |
| 2026-05-07 16:21 | 50.22496 | 8.78822 | 39006 ft | 452 kts | 133° |
| 2026-05-07 16:21 | 50.18189 | 8.85980 | 39003 ft | 452 kts | 133° |
| 2026-05-07 16:22 | 50.13881 | 8.93121 | 39004 ft | 452 kts | 133° |
| 2026-05-07 16:22 | 50.09568 | 9.00251 | 39004 ft | 452 kts | 133° |
| 2026-05-07 16:23 | 50.05279 | 9.07320 | 39012 ft | 451 kts | 133° |
| 2026-05-07 16:23 | 50.00956 | 9.14426 | 39002 ft | 451 kts | 133° |
| 2026-05-07 16:24 | 49.96644 | 9.21493 | 38998 ft | 451 kts | 134° |
| 2026-05-07 16:24 | 49.92315 | 9.28569 | 38989 ft | 451 kts | 134° |
| 2026-05-07 16:25 | 49.87993 | 9.35615 | 38987 ft | 450 kts | 134° |
| 2026-05-07 16:25 | 49.83668 | 9.42643 | 38981 ft | 450 kts | 134° |
| 2026-05-07 16:26 | 49.79333 | 9.49670 | 38990 ft | 450 kts | 134° |
| 2026-05-07 16:26 | 49.75031 | 9.56625 | 38990 ft | 450 kts | 134° |
| 2026-05-07 16:27 | 49.70692 | 9.63620 | 38994 ft | 451 kts | 134° |
| 2026-05-07 16:27 | 49.66346 | 9.70606 | 38989 ft | 451 kts | 134° |
| 2026-05-07 16:28 | 49.61992 | 9.77586 | 38999 ft | 451 kts | 134° |
| 2026-05-07 16:28 | 49.57636 | 9.84550 | 38989 ft | 452 kts | 134° |
| 2026-05-07 16:29 | 49.53263 | 9.91522 | 39005 ft | 452 kts | 134° |
| 2026-05-07 16:29 | 49.48908 | 9.98447 | 38998 ft | 452 kts | 134° |
| 2026-05-07 16:30 | 49.44530 | 10.05390 | 38998 ft | 453 kts | 134° |
| 2026-05-07 16:30 | 49.40142 | 10.12328 | 38994 ft | 453 kts | 134° |
| 2026-05-07 16:31 | 49.35745 | 10.19262 | 39003 ft | 453 kts | 134° |
| 2026-05-07 16:31 | 49.31344 | 10.26184 | 39006 ft | 453 kts | 134° |
| 2026-05-07 16:32 | 49.26940 | 10.33081 | 38999 ft | 453 kts | 135° |
| 2026-05-07 16:32 | 49.22153 | 10.39355 | 39002 ft | 453 kts | 144° |
| 2026-05-07 16:33 | 49.16846 | 10.44513 | 38994 ft | 452 kts | 149° |
| 2026-05-07 16:33 | 49.11421 | 10.49416 | 38995 ft | 453 kts | 149° |
| 2026-05-07 16:34 | 49.06031 | 10.54306 | 38999 ft | 453 kts | 149° |
| 2026-05-07 16:34 | 49.00615 | 10.59212 | 39008 ft | 453 kts | 149° |
| 2026-05-07 16:35 | 48.95193 | 10.64111 | 38998 ft | 453 kts | 149° |
| 2026-05-07 16:35 | 48.89772 | 10.68995 | 38998 ft | 453 kts | 149° |
| 2026-05-07 16:36 | 48.84374 | 10.73931 | 38995 ft | 453 kts | 146° |
| 2026-05-07 16:36 | 48.79424 | 10.79835 | 38998 ft | 453 kts | 137° |
| 2026-05-07 16:37 | 48.75107 | 10.86792 | 38998 ft | 453 kts | 132° |
| 2026-05-07 16:37 | 48.70906 | 10.93894 | 39001 ft | 453 kts | 132° |
| 2026-05-07 16:38 | 48.66672 | 11.00983 | 39002 ft | 453 kts | 132° |
| 2026-05-07 16:38 | 48.62433 | 11.08048 | 39003 ft | 453 kts | 132° |
| 2026-05-07 16:39 | 48.58192 | 11.15098 | 39010 ft | 453 kts | 132° |
| 2026-05-07 16:39 | 48.53947 | 11.22135 | 38996 ft | 453 kts | 132° |
| 2026-05-07 16:40 | 48.49728 | 11.29111 | 38998 ft | 453 kts | 133° |
| 2026-05-07 16:40 | 48.45474 | 11.36125 | 39001 ft | 453 kts | 133° |
| 2026-05-07 16:41 | 48.41211 | 11.43136 | 39000 ft | 453 kts | 133° |
| 2026-05-07 16:41 | 48.36950 | 11.50125 | 39006 ft | 453 kts | 133° |
| 2026-05-07 16:42 | 48.32689 | 11.57095 | 38996 ft | 453 kts | 133° |
| 2026-05-07 16:42 | 48.28418 | 11.64064 | 38995 ft | 453 kts | 133° |
| 2026-05-07 16:43 | 48.24000 | 11.70714 | 38998 ft | 453 kts | 138° |
| 2026-05-07 16:43 | 48.20096 | 11.76063 | 38993 ft | 453 kts | 137° |
| 2026-05-07 16:44 | 48.15482 | 11.82397 | 38998 ft | 453 kts | 137° |
| 2026-05-07 16:44 | 48.10837 | 11.88762 | 38997 ft | 453 kts | 137° |
| 2026-05-07 16:45 | 48.06191 | 11.95111 | 38990 ft | 453 kts | 137° |
| 2026-05-07 16:45 | 48.01529 | 12.01465 | 38992 ft | 453 kts | 138° |
| 2026-05-07 16:46 | 47.96870 | 12.07798 | 39006 ft | 453 kts | 138° |
| 2026-05-07 16:46 | 47.92209 | 12.14118 | 38995 ft | 453 kts | 138° |
| 2026-05-07 16:47 | 47.87534 | 12.20441 | 39008 ft | 453 kts | 138° |
| 2026-05-07 16:47 | 47.82889 | 12.26707 | 39004 ft | 454 kts | 138° |
| 2026-05-07 16:48 | 47.78205 | 12.33010 | 39005 ft | 454 kts | 138° |
| 2026-05-07 16:48 | 47.73510 | 12.39311 | 39004 ft | 456 kts | 138° |
| 2026-05-07 16:49 | 47.68802 | 12.45615 | 39006 ft | 457 kts | 138° |
| 2026-05-07 16:49 | 47.64084 | 12.51915 | 39005 ft | 457 kts | 138° |
| 2026-05-07 16:50 | 47.59383 | 12.58331 | 38999 ft | 460 kts | 136° |
| 2026-05-07 16:50 | 47.54836 | 12.64839 | 38999 ft | 457 kts | 136° |
| 2026-05-07 16:51 | 47.50250 | 12.71366 | 38999 ft | 455 kts | 136° |
| 2026-05-07 16:51 | 47.45640 | 12.77874 | 39006 ft | 460 kts | 136° |
| 2026-05-07 16:52 | 47.41046 | 12.84329 | 39000 ft | 453 kts | 136° |
| 2026-05-07 16:52 | 47.36452 | 12.90769 | 38992 ft | 458 kts | 136° |
| 2026-05-07 16:53 | 47.31798 | 12.97275 | 39000 ft | 460 kts | 136° |
| 2026-05-07 16:53 | 47.27219 | 13.03662 | 38991 ft | 456 kts | 137° |
| 2026-05-07 16:54 | 47.22574 | 13.10124 | 39006 ft | 459 kts | 137° |
| 2026-05-07 16:54 | 47.17944 | 13.16549 | 39006 ft | 459 kts | 137° |
| 2026-05-07 16:55 | 47.13274 | 13.23013 | 38999 ft | 462 kts | 137° |
| 2026-05-07 16:55 | 47.08581 | 13.29493 | 38992 ft | 464 kts | 137° |
| 2026-05-07 16:56 | 47.03870 | 13.35980 | 39007 ft | 465 kts | 137° |
| 2026-05-07 16:56 | 46.96859 | 13.45606 | 39004 ft | 458 kts | 137° |
| 2026-05-07 16:57 | 46.92226 | 13.51945 | 38997 ft | 456 kts | 137° |
| 2026-05-07 16:57 | 46.87584 | 13.58282 | 38998 ft | 458 kts | 137° |
| 2026-05-07 16:58 | 46.82894 | 13.64669 | 39005 ft | 463 kts | 137° |
| 2026-05-07 16:58 | 46.78206 | 13.71037 | 38990 ft | 455 kts | 137° |
| 2026-05-07 16:59 | 46.73552 | 13.77343 | 39001 ft | 457 kts | 137° |
| 2026-05-07 16:59 | 46.68957 | 13.83553 | 39003 ft | 454 kts | 137° |
| 2026-05-07 17:00 | 46.64277 | 13.89863 | 39001 ft | 453 kts | 137° |
| 2026-05-07 17:00 | 46.59678 | 13.96049 | 39005 ft | 453 kts | 137° |
| 2026-05-07 17:01 | 46.55046 | 14.02264 | 38998 ft | 453 kts | 137° |
| 2026-05-07 17:01 | 46.50404 | 14.08478 | 38989 ft | 455 kts | 137° |
| 2026-05-07 17:02 | 46.45741 | 14.14704 | 38995 ft | 457 kts | 137° |
| 2026-05-07 17:02 | 46.41036 | 14.20971 | 39004 ft | 459 kts | 137° |
| 2026-05-07 17:03 | 46.36353 | 14.27193 | 39006 ft | 457 kts | 137° |
| 2026-05-07 17:03 | 46.31727 | 14.33326 | 39005 ft | 452 kts | 137° |
| 2026-05-07 17:04 | 46.27086 | 14.39463 | 38997 ft | 453 kts | 137° |
| 2026-05-07 17:04 | 46.22428 | 14.45606 | 39001 ft | 452 kts | 137° |
| 2026-05-07 17:05 | 46.17777 | 14.51727 | 39001 ft | 452 kts | 138° |
| 2026-05-07 17:05 | 46.13125 | 14.57835 | 38993 ft | 452 kts | 138° |
| 2026-05-07 17:06 | 46.08471 | 14.63930 | 39007 ft | 452 kts | 138° |
| 2026-05-07 17:06 | 46.03842 | 14.69979 | 38993 ft | 452 kts | 138° |
| 2026-05-07 17:07 | 45.99177 | 14.76059 | 38990 ft | 452 kts | 138° |
| 2026-05-07 17:07 | 45.94513 | 14.82125 | 38994 ft | 452 kts | 138° |
| 2026-05-07 17:08 | 45.89849 | 14.88176 | 38993 ft | 452 kts | 138° |
| 2026-05-07 17:08 | 45.85177 | 14.94222 | 38998 ft | 452 kts | 138° |
| 2026-05-07 17:09 | 45.80506 | 15.00253 | 39001 ft | 452 kts | 138° |
| 2026-05-07 17:09 | 45.75826 | 15.06283 | 39003 ft | 452 kts | 138° |
| 2026-05-07 17:10 | 45.71146 | 15.12297 | 39002 ft | 453 kts | 138° |
| 2026-05-07 17:10 | 45.66445 | 15.18324 | 39006 ft | 453 kts | 138° |
| 2026-05-07 17:11 | 45.61787 | 15.24286 | 39019 ft | 453 kts | 138° |
| 2026-05-07 17:11 | 45.57099 | 15.30250 | 39005 ft | 450 kts | 140° |
| 2026-05-07 17:12 | 45.52316 | 15.36076 | 39005 ft | 453 kts | 139° |
| 2026-05-07 17:12 | 45.47553 | 15.41950 | 38998 ft | 451 kts | 139° |
| 2026-05-07 17:13 | 45.42801 | 15.47782 | 38998 ft | 451 kts | 139° |
| 2026-05-07 17:13 | 45.38036 | 15.53603 | 38991 ft | 451 kts | 139° |
| 2026-05-07 17:14 | 45.33301 | 15.59370 | 39000 ft | 451 kts | 140° |
| 2026-05-07 17:14 | 45.28528 | 15.65169 | 39002 ft | 451 kts | 140° |
| 2026-05-07 17:15 | 45.23747 | 15.70965 | 38997 ft | 451 kts | 140° |
| 2026-05-07 17:15 | 45.18969 | 15.76745 | 38997 ft | 451 kts | 140° |
| 2026-05-07 17:16 | 45.14188 | 15.82514 | 39000 ft | 451 kts | 140° |
| 2026-05-07 17:16 | 45.09403 | 15.88276 | 38999 ft | 451 kts | 140° |
| 2026-05-07 17:17 | 45.04649 | 15.93987 | 39004 ft | 452 kts | 140° |
| 2026-05-07 17:17 | 44.99855 | 15.99734 | 38991 ft | 451 kts | 140° |
| 2026-05-07 17:18 | 44.95062 | 16.05466 | 38992 ft | 451 kts | 140° |
| 2026-05-07 17:18 | 44.90266 | 16.11187 | 38992 ft | 451 kts | 140° |
| 2026-05-07 17:19 | 44.85465 | 16.16903 | 39000 ft | 451 kts | 140° |
| 2026-05-07 17:19 | 44.80663 | 16.22607 | 38991 ft | 452 kts | 140° |
| 2026-05-07 17:20 | 44.75857 | 16.28302 | 38991 ft | 452 kts | 140° |
| 2026-05-07 17:20 | 44.71031 | 16.34009 | 39001 ft | 456 kts | 140° |
| 2026-05-07 17:21 | 44.66153 | 16.39764 | 39001 ft | 457 kts | 140° |
| 2026-05-07 17:21 | 44.61308 | 16.45467 | 38995 ft | 457 kts | 140° |
| 2026-05-07 17:22 | 44.56435 | 16.51190 | 38994 ft | 456 kts | 140° |
| 2026-05-07 17:22 | 44.51575 | 16.56885 | 38997 ft | 455 kts | 140° |
| 2026-05-07 17:23 | 44.46711 | 16.62572 | 38992 ft | 456 kts | 140° |
| 2026-05-07 17:23 | 44.41837 | 16.68258 | 38988 ft | 456 kts | 140° |
| 2026-05-07 17:24 | 44.36959 | 16.73935 | 38992 ft | 456 kts | 140° |
| 2026-05-07 17:24 | 44.32080 | 16.79602 | 39003 ft | 456 kts | 140° |
| 2026-05-07 17:25 | 44.27222 | 16.85230 | 39006 ft | 456 kts | 140° |
| 2026-05-07 17:25 | 44.22324 | 16.90893 | 39003 ft | 459 kts | 140° |
| 2026-05-07 17:26 | 44.17402 | 16.96570 | 39003 ft | 459 kts | 140° |
| 2026-05-07 17:26 | 44.12477 | 17.02239 | 39005 ft | 460 kts | 140° |
| 2026-05-07 17:27 | 44.07532 | 17.07918 | 39004 ft | 460 kts | 141° |
| 2026-05-07 17:27 | 44.02590 | 17.13580 | 38999 ft | 457 kts | 141° |
| 2026-05-07 17:28 | 43.97718 | 17.19150 | 38994 ft | 457 kts | 141° |
| 2026-05-07 17:28 | 43.92800 | 17.24762 | 39003 ft | 457 kts | 141° |
| 2026-05-07 17:29 | 43.87880 | 17.30361 | 38999 ft | 458 kts | 141° |
| 2026-05-07 17:29 | 43.82957 | 17.35953 | 39000 ft | 457 kts | 141° |
| 2026-05-07 17:30 | 43.78032 | 17.41534 | 38986 ft | 457 kts | 141° |
| 2026-05-07 17:30 | 43.73142 | 17.47063 | 38984 ft | 457 kts | 141° |
| 2026-05-07 17:31 | 43.68221 | 17.52616 | 38987 ft | 457 kts | 141° |
| 2026-05-07 17:31 | 43.63273 | 17.58187 | 38997 ft | 459 kts | 141° |
| 2026-05-07 17:32 | 43.58299 | 17.63778 | 39002 ft | 461 kts | 141° |
| 2026-05-07 17:32 | 43.54181 | 17.68426 | 38995 ft | 458 kts | 140° |
| 2026-05-07 17:33 | 43.48586 | 17.74990 | 38997 ft | 451 kts | 140° |
| 2026-05-07 17:33 | 43.43772 | 17.80640 | 39002 ft | 456 kts | 140° |
| 2026-05-07 17:34 | 43.39763 | 17.85316 | 38997 ft | 452 kts | 140° |
| 2026-05-07 17:34 | 43.34190 | 17.91793 | 39006 ft | 454 kts | 140° |
| 2026-05-07 17:35 | 43.29331 | 17.97427 | 39005 ft | 457 kts | 140° |
| 2026-05-07 17:35 | 43.25293 | 18.02100 | 39002 ft | 455 kts | 140° |
| 2026-05-07 17:36 | 43.20405 | 18.07745 | 38999 ft | 457 kts | 140° |
| 2026-05-07 17:36 | 43.15575 | 18.13312 | 39002 ft | 456 kts | 140° |
| 2026-05-07 17:37 | 43.10705 | 18.18913 | 39008 ft | 458 kts | 140° |
| 2026-05-07 17:37 | 43.05858 | 18.24474 | 38999 ft | 451 kts | 140° |
| 2026-05-07 17:38 | 43.01033 | 18.29999 | 38997 ft | 454 kts | 140° |
| 2026-05-07 17:38 | 42.96184 | 18.35539 | 39001 ft | 455 kts | 140° |
| 2026-05-07 17:39 | 42.91333 | 18.41071 | 38998 ft | 454 kts | 140° |
| 2026-05-07 17:39 | 42.86488 | 18.46583 | 38998 ft | 455 kts | 140° |
| 2026-05-07 17:40 | 42.81621 | 18.52109 | 39002 ft | 456 kts | 140° |
| 2026-05-07 17:40 | 42.76735 | 18.57645 | 39006 ft | 457 kts | 140° |
| 2026-05-07 17:41 | 42.71889 | 18.63124 | 39002 ft | 455 kts | 140° |
| 2026-05-07 17:41 | 42.66973 | 18.68670 | 38996 ft | 457 kts | 140° |
| 2026-05-07 17:42 | 42.62116 | 18.74138 | 39006 ft | 454 kts | 140° |
| 2026-05-07 17:42 | 42.57247 | 18.79609 | 39006 ft | 456 kts | 140° |
| 2026-05-07 17:43 | 42.52359 | 18.85089 | 39010 ft | 456 kts | 140° |
| 2026-05-07 17:43 | 42.47463 | 18.90566 | 38994 ft | 455 kts | 141° |
| 2026-05-07 17:44 | 42.42606 | 18.95989 | 38998 ft | 455 kts | 141° |
| 2026-05-07 17:44 | 42.37731 | 19.01420 | 39000 ft | 453 kts | 141° |
| 2026-05-07 17:45 | 42.32882 | 19.06811 | 38999 ft | 449 kts | 141° |
| 2026-05-07 17:45 | 42.28040 | 19.12183 | 38996 ft | 450 kts | 141° |
| 2026-05-07 17:46 | 42.23196 | 19.17547 | 38991 ft | 450 kts | 141° |
| 2026-05-07 17:46 | 42.18386 | 19.22862 | 39004 ft | 450 kts | 141° |
| 2026-05-07 17:47 | 42.13544 | 19.28202 | 38995 ft | 450 kts | 141° |
| 2026-05-07 17:47 | 42.08696 | 19.33536 | 38993 ft | 450 kts | 141° |
| 2026-05-07 17:48 | 42.03847 | 19.38862 | 38986 ft | 449 kts | 141° |
| 2026-05-07 17:48 | 42.01416 | 19.41529 | 38861 ft | 451 kts | 141° |
| 2026-05-07 17:48 | 41.99009 | 19.44167 | 38979 ft | 452 kts | 141° |
| 2026-05-07 17:49 | 41.94098 | 19.49385 | 39001 ft | 449 kts | 143° |
| 2026-05-07 17:49 | 41.89116 | 19.54455 | 39001 ft | 452 kts | 143° |
| 2026-05-07 17:50 | 41.84130 | 19.59556 | 38995 ft | 449 kts | 143° |
| 2026-05-07 17:50 | 41.79165 | 19.64647 | 39004 ft | 450 kts | 143° |
| 2026-05-07 17:51 | 41.74188 | 19.69744 | 39003 ft | 451 kts | 143° |
| 2026-05-07 17:51 | 41.69196 | 19.74846 | 38998 ft | 450 kts | 143° |
| 2026-05-07 17:52 | 41.64204 | 19.79936 | 39006 ft | 452 kts | 143° |
| 2026-05-07 17:52 | 41.59195 | 19.85034 | 38999 ft | 458 kts | 143° |
| 2026-05-07 17:53 | 41.54140 | 19.90169 | 38993 ft | 456 kts | 143° |
| 2026-05-07 17:53 | 41.49072 | 19.95306 | 39001 ft | 460 kts | 143° |
| 2026-05-07 17:54 | 41.43993 | 20.00444 | 39005 ft | 457 kts | 143° |
| 2026-05-07 17:54 | 41.38878 | 20.05544 | 38999 ft | 460 kts | 142° |
| 2026-05-07 17:55 | 41.33830 | 20.10789 | 39003 ft | 458 kts | 142° |
| 2026-05-07 17:55 | 41.28794 | 20.15923 | 38966 ft | 458 kts | 143° |
| 2026-05-07 17:56 | 41.26258 | 20.18473 | 38739 ft | 456 kts | 143° |
| 2026-05-07 17:56 | 41.23739 | 20.20996 | 38487 ft | 452 kts | 143° |
| 2026-05-07 17:56 | 41.21223 | 20.23511 | 38241 ft | 454 kts | 143° |
| 2026-05-07 17:56 | 41.18694 | 20.26036 | 37994 ft | 455 kts | 143° |
| 2026-05-07 17:57 | 41.16177 | 20.28547 | 37743 ft | 451 kts | 143° |
| 2026-05-07 17:57 | 41.14520 | 20.30200 | 37576 ft | 451 kts | 143° |
| 2026-05-07 17:57 | 41.11108 | 20.33533 | 37247 ft | 460 kts | 142° |
| 2026-05-07 17:57 | 41.08603 | 20.36101 | 37000 ft | 461 kts | 142° |
| 2026-05-07 17:58 | 41.06062 | 20.38704 | 36751 ft | 460 kts | 142° |
| 2026-05-07 17:58 | 41.03523 | 20.41268 | 36504 ft | 456 kts | 143° |
| 2026-05-07 17:58 | 41.00996 | 20.43792 | 36253 ft | 454 kts | 143° |
| 2026-05-07 17:58 | 40.98470 | 20.46297 | 36005 ft | 453 kts | 143° |
| 2026-05-07 17:59 | 40.95935 | 20.48800 | 35756 ft | 454 kts | 143° |
| 2026-05-07 17:59 | 40.93403 | 20.51297 | 35502 ft | 454 kts | 143° |
| 2026-05-07 17:59 | 40.90860 | 20.53800 | 35257 ft | 455 kts | 143° |
| 2026-05-07 17:59 | 40.88326 | 20.56294 | 35013 ft | 457 kts | 143° |
| 2026-05-07 18:00 | 40.85757 | 20.58819 | 34759 ft | 460 kts | 143° |
| 2026-05-07 18:00 | 40.83214 | 20.61317 | 34512 ft | 461 kts | 143° |
| 2026-05-07 18:00 | 40.80639 | 20.63843 | 34264 ft | 460 kts | 143° |
| 2026-05-07 18:00 | 40.78072 | 20.66360 | 34013 ft | 460 kts | 143° |
| 2026-05-07 18:01 | 40.75501 | 20.68878 | 33760 ft | 460 kts | 143° |
| 2026-05-07 18:01 | 40.72937 | 20.71386 | 33513 ft | 458 kts | 143° |
| 2026-05-07 18:01 | 40.70376 | 20.73889 | 33269 ft | 458 kts | 143° |
| 2026-05-07 18:01 | 40.67812 | 20.76393 | 33015 ft | 459 kts | 143° |
| 2026-05-07 18:02 | 40.62668 | 20.81409 | 32519 ft | 461 kts | 143° |
| 2026-05-07 18:02 | 40.60073 | 20.83935 | 32268 ft | 465 kts | 143° |
| 2026-05-07 18:02 | 40.57461 | 20.86476 | 32017 ft | 467 kts | 143° |
| 2026-05-07 18:03 | 40.54859 | 20.89004 | 31768 ft | 464 kts | 143° |
| 2026-05-07 18:03 | 40.52261 | 20.91526 | 31518 ft | 464 kts | 143° |
| 2026-05-07 18:03 | 40.49664 | 20.94044 | 31269 ft | 464 kts | 143° |
| 2026-05-07 18:03 | 40.47122 | 20.96657 | 31018 ft | 466 kts | 139° |
| 2026-05-07 18:04 | 40.44685 | 20.99475 | 30770 ft | 467 kts | 139° |
| 2026-05-07 18:04 | 40.42249 | 21.02300 | 30516 ft | 466 kts | 139° |
| 2026-05-07 18:04 | 40.39829 | 21.05099 | 30269 ft | 461 kts | 139° |
| 2026-05-07 18:04 | 40.37425 | 21.07874 | 30020 ft | 459 kts | 139° |
| 2026-05-07 18:05 | 40.35030 | 21.10633 | 29770 ft | 458 kts | 139° |
| 2026-05-07 18:05 | 40.32638 | 21.13385 | 29518 ft | 458 kts | 139° |
| 2026-05-07 18:05 | 40.30251 | 21.16127 | 29270 ft | 454 kts | 139° |
| 2026-05-07 18:05 | 40.27908 | 21.18816 | 29023 ft | 451 kts | 139° |
| 2026-05-07 18:06 | 40.25551 | 21.21517 | 28773 ft | 449 kts | 139° |
| 2026-05-07 18:06 | 40.23205 | 21.24205 | 28524 ft | 448 kts | 139° |
| 2026-05-07 18:06 | 40.20863 | 21.26885 | 28266 ft | 446 kts | 139° |
| 2026-05-07 18:07 | 40.16158 | 21.32261 | 28611 ft | 450 kts | 139° |
| 2026-05-07 18:07 | 40.13804 | 21.34947 | 28718 ft | 450 kts | 139° |
| 2026-05-07 18:07 | 40.11449 | 21.37632 | 28816 ft | 449 kts | 139° |
| 2026-05-07 18:07 | 40.09089 | 21.40319 | 28924 ft | 449 kts | 139° |
| 2026-05-07 18:08 | 40.06736 | 21.42998 | 28995 ft | 450 kts | 139° |
| 2026-05-07 18:08 | 40.01981 | 21.48316 | 29000 ft | 450 kts | 139° |
| 2026-05-07 18:09 | 39.97267 | 21.53722 | 29000 ft | 451 kts | 139° |
| 2026-05-07 18:09 | 39.92528 | 21.59077 | 29000 ft | 450 kts | 139° |
| 2026-05-07 18:10 | 39.87809 | 21.64425 | 28701 ft | 448 kts | 139° |
| 2026-05-07 18:10 | 39.85490 | 21.67046 | 28451 ft | 446 kts | 139° |
| 2026-05-07 18:10 | 39.83148 | 21.69689 | 28202 ft | 444 kts | 139° |
| 2026-05-07 18:10 | 39.80821 | 21.72311 | 27955 ft | 443 kts | 139° |
| 2026-05-07 18:11 | 39.78490 | 21.74932 | 27702 ft | 443 kts | 139° |
| 2026-05-07 18:11 | 39.76919 | 21.76698 | 27538 ft | 441 kts | 139° |
| 2026-05-07 18:11 | 39.73856 | 21.80137 | 27201 ft | 437 kts | 139° |
| 2026-05-07 18:11 | 39.71560 | 21.82711 | 26949 ft | 436 kts | 139° |
| 2026-05-07 18:12 | 39.69267 | 21.85280 | 26702 ft | 434 kts | 139° |
| 2026-05-07 18:12 | 39.66991 | 21.87829 | 26452 ft | 431 kts | 139° |
| 2026-05-07 18:12 | 39.64724 | 21.90364 | 26202 ft | 429 kts | 139° |
| 2026-05-07 18:12 | 39.62469 | 21.92885 | 25951 ft | 427 kts | 139° |
| 2026-05-07 18:13 | 39.60221 | 21.95394 | 25702 ft | 425 kts | 139° |
| 2026-05-07 18:13 | 39.57982 | 21.97892 | 25467 ft | 424 kts | 139° |
| 2026-05-07 18:13 | 39.55737 | 22.00394 | 25582 ft | 427 kts | 139° |
| 2026-05-07 18:13 | 39.53479 | 22.02908 | 26189 ft | 427 kts | 139° |
| 2026-05-07 18:14 | 39.51216 | 22.05425 | 26671 ft | 431 kts | 139° |
| 2026-05-07 18:14 | 39.48937 | 22.07958 | 26789 ft | 432 kts | 139° |
| 2026-05-07 18:14 | 39.46686 | 22.10458 | 26891 ft | 432 kts | 140° |
| 2026-05-07 18:14 | 39.44400 | 22.12995 | 26969 ft | 433 kts | 140° |
| 2026-05-07 18:15 | 39.42110 | 22.15533 | 26972 ft | 433 kts | 140° |
| 2026-05-07 18:15 | 39.39820 | 22.18070 | 26998 ft | 433 kts | 140° |
| 2026-05-07 18:15 | 39.37530 | 22.20604 | 27000 ft | 433 kts | 140° |
| 2026-05-07 18:15 | 39.35239 | 22.23136 | 26999 ft | 433 kts | 140° |
| 2026-05-07 18:16 | 39.32945 | 22.25670 | 27000 ft | 433 kts | 140° |
| 2026-05-07 18:16 | 39.30656 | 22.28197 | 27001 ft | 433 kts | 140° |
| 2026-05-07 18:16 | 39.28364 | 22.30723 | 27001 ft | 433 kts | 140° |
| 2026-05-07 18:16 | 39.26070 | 22.33250 | 27001 ft | 434 kts | 140° |
| 2026-05-07 18:17 | 39.23773 | 22.35779 | 26982 ft | 435 kts | 140° |
| 2026-05-07 18:17 | 39.21461 | 22.38320 | 26564 ft | 437 kts | 140° |
| 2026-05-07 18:17 | 39.19136 | 22.40875 | 25820 ft | 441 kts | 140° |
| 2026-05-07 18:17 | 39.16817 | 22.43421 | 25249 ft | 435 kts | 140° |
| 2026-05-07 18:18 | 39.14555 | 22.45902 | 24650 ft | 430 kts | 140° |
| 2026-05-07 18:18 | 39.12286 | 22.48388 | 24051 ft | 425 kts | 140° |
| 2026-05-07 18:18 | 39.10049 | 22.50837 | 23440 ft | 420 kts | 140° |
| 2026-05-07 18:18 | 39.07834 | 22.53261 | 22842 ft | 416 kts | 140° |
| 2026-05-07 18:19 | 39.05638 | 22.55660 | 22251 ft | 411 kts | 140° |
| 2026-05-07 18:19 | 39.03469 | 22.58029 | 21627 ft | 408 kts | 140° |
| 2026-05-07 18:19 | 39.01318 | 22.60376 | 21055 ft | 403 kts | 140° |
| 2026-05-07 18:19 | 38.99192 | 22.62694 | 20484 ft | 399 kts | 140° |
| 2026-05-07 18:20 | 38.97084 | 22.64990 | 19908 ft | 394 kts | 140° |
| 2026-05-07 18:20 | 38.95003 | 22.67256 | 19348 ft | 390 kts | 140° |
| 2026-05-07 18:20 | 38.92945 | 22.69494 | 18782 ft | 386 kts | 140° |
| 2026-05-07 18:20 | 38.90903 | 22.71712 | 18221 ft | 382 kts | 140° |
| 2026-05-07 18:21 | 38.88886 | 22.73903 | 17668 ft | 377 kts | 140° |
| 2026-05-07 18:21 | 38.86888 | 22.76070 | 17112 ft | 373 kts | 140° |
| 2026-05-07 18:21 | 38.85581 | 22.77488 | 16751 ft | 371 kts | 140° |
| 2026-05-07 18:21 | 38.82985 | 22.80301 | 16020 ft | 366 kts | 140° |
| 2026-05-07 18:22 | 38.81674 | 22.81721 | 15652 ft | 364 kts | 140° |
| 2026-05-07 18:22 | 38.80400 | 22.83100 | 15295 ft | 362 kts | 140° |
| 2026-05-07 18:22 | 38.77844 | 22.85864 | 14580 ft | 357 kts | 140° |
| 2026-05-07 18:22 | 38.75342 | 22.88566 | 13876 ft | 353 kts | 140° |
| 2026-05-07 18:23 | 38.73471 | 22.90587 | 13344 ft | 350 kts | 140° |
| 2026-05-07 18:23 | 38.72216 | 22.91941 | 12984 ft | 348 kts | 140° |
| 2026-05-07 18:23 | 38.70392 | 22.93908 | 12475 ft | 345 kts | 140° |
| 2026-05-07 18:23 | 38.68536 | 22.95907 | 11955 ft | 342 kts | 140° |
| 2026-05-07 18:24 | 38.66749 | 22.97832 | 11455 ft | 339 kts | 140° |
| 2026-05-07 18:24 | 38.64952 | 22.99765 | 10954 ft | 336 kts | 140° |
| 2026-05-07 18:24 | 38.63167 | 23.01685 | 10399 ft | 334 kts | 140° |
| 2026-05-07 18:24 | 38.61389 | 23.03595 | 9984 ft | 329 kts | 140° |
| 2026-05-07 18:25 | 38.59673 | 23.05439 | 9832 ft | 315 kts | 140° |
| 2026-05-07 18:25 | 38.58031 | 23.07201 | 9705 ft | 301 kts | 140° |
| 2026-05-07 18:25 | 38.56448 | 23.08899 | 9421 ft | 294 kts | 140° |
| 2026-05-07 18:25 | 38.54894 | 23.10564 | 9148 ft | 287 kts | 140° |
| 2026-05-07 18:26 | 38.53371 | 23.12196 | 9037 ft | 287 kts | 140° |
| 2026-05-07 18:26 | 38.51834 | 23.13841 | 8898 ft | 287 kts | 140° |
| 2026-05-07 18:26 | 38.50306 | 23.15477 | 8773 ft | 286 kts | 140° |
| 2026-05-07 18:26 | 38.48805 | 23.17082 | 8649 ft | 285 kts | 140° |
| 2026-05-07 18:27 | 38.47288 | 23.18702 | 8524 ft | 284 kts | 140° |
| 2026-05-07 18:27 | 38.45771 | 23.20323 | 8399 ft | 285 kts | 140° |
| 2026-05-07 18:27 | 38.44254 | 23.21943 | 8277 ft | 284 kts | 140° |
| 2026-05-07 18:27 | 38.42743 | 23.23555 | 8149 ft | 283 kts | 140° |
| 2026-05-07 18:28 | 38.41233 | 23.25165 | 8023 ft | 282 kts | 140° |
| 2026-05-07 18:28 | 38.39728 | 23.26769 | 7903 ft | 282 kts | 140° |
| 2026-05-07 18:28 | 38.38224 | 23.28372 | 7843 ft | 282 kts | 140° |
| 2026-05-07 18:28 | 38.36720 | 23.29972 | 7840 ft | 281 kts | 140° |
| 2026-05-07 18:29 | 38.35217 | 23.31572 | 7838 ft | 282 kts | 140° |
| 2026-05-07 18:29 | 38.33714 | 23.33170 | 7843 ft | 282 kts | 140° |
| 2026-05-07 18:29 | 38.32207 | 23.34771 | 7843 ft | 282 kts | 140° |
| 2026-05-07 18:29 | 38.30700 | 23.36372 | 7844 ft | 283 kts | 140° |
| 2026-05-07 18:30 | 38.29190 | 23.37975 | 7842 ft | 282 kts | 140° |
| 2026-05-07 18:30 | 38.27678 | 23.39579 | 7840 ft | 282 kts | 140° |
| 2026-05-07 18:30 | 38.26167 | 23.41181 | 7843 ft | 282 kts | 140° |
| 2026-05-07 18:30 | 38.24660 | 23.42779 | 7843 ft | 282 kts | 140° |
| 2026-05-07 18:31 | 38.23168 | 23.44360 | 7842 ft | 283 kts | 140° |
| 2026-05-07 18:31 | 38.21656 | 23.45961 | 7841 ft | 283 kts | 140° |
| 2026-05-07 18:31 | 38.20137 | 23.47569 | 7838 ft | 284 kts | 140° |
| 2026-05-07 18:31 | 38.18622 | 23.49172 | 7842 ft | 283 kts | 140° |
| 2026-05-07 18:32 | 38.17107 | 23.50778 | 7845 ft | 283 kts | 139° |
| 2026-05-07 18:32 | 38.15696 | 23.52533 | 7766 ft | 283 kts | 134° |
| 2026-05-07 18:32 | 38.14329 | 23.54325 | 7685 ft | 282 kts | 134° |
| 2026-05-07 18:32 | 38.12971 | 23.56112 | 7616 ft | 282 kts | 134° |
| 2026-05-07 18:33 | 38.11604 | 23.57905 | 7546 ft | 281 kts | 134° |
| 2026-05-07 18:33 | 38.10242 | 23.59685 | 7481 ft | 280 kts | 134° |
| 2026-05-07 18:33 | 38.08880 | 23.61460 | 7402 ft | 280 kts | 134° |
| 2026-05-07 18:33 | 38.07522 | 23.63227 | 7334 ft | 280 kts | 134° |
| 2026-05-07 18:34 | 38.06178 | 23.64974 | 7262 ft | 279 kts | 134° |
| 2026-05-07 18:34 | 38.04823 | 23.66734 | 7192 ft | 280 kts | 134° |
| 2026-05-07 18:34 | 38.03462 | 23.68500 | 7124 ft | 279 kts | 134° |
| 2026-05-07 18:34 | 38.02107 | 23.70258 | 7049 ft | 278 kts | 134° |
| 2026-05-07 18:35 | 38.00755 | 23.72012 | 6982 ft | 278 kts | 134° |
| 2026-05-07 18:35 | 37.99405 | 23.73763 | 6914 ft | 278 kts | 134° |
| 2026-05-07 18:35 | 37.98049 | 23.75518 | 6836 ft | 278 kts | 134° |
| 2026-05-07 18:35 | 37.96695 | 23.77272 | 6770 ft | 278 kts | 134° |
| 2026-05-07 18:36 | 37.95346 | 23.79017 | 6701 ft | 278 kts | 135° |
| 2026-05-07 18:36 | 37.93989 | 23.80772 | 6619 ft | 279 kts | 135° |
| 2026-05-07 18:36 | 37.92632 | 23.82526 | 6552 ft | 277 kts | 135° |
| 2026-05-07 18:36 | 37.91288 | 23.84262 | 6484 ft | 276 kts | 135° |
| 2026-05-07 18:37 | 37.89939 | 23.86004 | 6417 ft | 276 kts | 135° |
| 2026-05-07 18:37 | 37.88595 | 23.87739 | 6345 ft | 276 kts | 135° |
| 2026-05-07 18:37 | 37.87250 | 23.89473 | 6273 ft | 276 kts | 135° |
| 2026-05-07 18:37 | 37.85909 | 23.91201 | 6200 ft | 275 kts | 135° |
| 2026-05-07 18:38 | 37.84569 | 23.92928 | 6135 ft | 275 kts | 135° |
| 2026-05-07 18:38 | 37.83225 | 23.94657 | 6069 ft | 275 kts | 135° |
| 2026-05-07 18:38 | 37.81889 | 23.96377 | 5996 ft | 275 kts | 135° |
| 2026-05-07 18:38 | 37.80547 | 23.98103 | 5927 ft | 274 kts | 135° |
| 2026-05-07 18:39 | 37.79211 | 23.99820 | 5857 ft | 274 kts | 135° |
| 2026-05-07 18:39 | 37.77875 | 24.01536 | 5784 ft | 274 kts | 135° |
| 2026-05-07 18:39 | 37.76540 | 24.03249 | 5717 ft | 274 kts | 135° |
| 2026-05-07 18:39 | 37.75203 | 24.04965 | 5650 ft | 273 kts | 135° |
| 2026-05-07 18:40 | 37.73871 | 24.06675 | 5576 ft | 272 kts | 135° |
| 2026-05-07 18:40 | 37.72541 | 24.08379 | 5509 ft | 272 kts | 135° |
| 2026-05-07 18:40 | 37.71230 | 24.10058 | 5442 ft | 272 kts | 135° |
| 2026-05-07 18:40 | 37.69905 | 24.11754 | 5376 ft | 272 kts | 135° |
| 2026-05-07 18:41 | 37.68576 | 24.13456 | 5301 ft | 271 kts | 135° |
| 2026-05-07 18:41 | 37.67251 | 24.15150 | 5235 ft | 271 kts | 135° |
| 2026-05-07 18:41 | 37.65924 | 24.16846 | 5163 ft | 271 kts | 135° |
| 2026-05-07 18:41 | 37.64601 | 24.18537 | 5096 ft | 270 kts | 135° |
| 2026-05-07 18:42 | 37.63279 | 24.20225 | 5032 ft | 270 kts | 135° |
| 2026-05-07 18:42 | 37.62102 | 24.22057 | 4958 ft | 270 kts | 116° |
| 2026-05-07 18:42 | 37.61659 | 24.24343 | 4887 ft | 270 kts | 89° |
| 2026-05-07 18:42 | 37.62104 | 24.26618 | 4827 ft | 270 kts | 61° |
| 2026-05-07 18:43 | 37.63336 | 24.28370 | 4768 ft | 269 kts | 33° |
| 2026-05-07 18:43 | 37.65067 | 24.29191 | 4707 ft | 268 kts | 5° |
| 2026-05-07 18:43 | 37.66922 | 24.29072 | 4651 ft | 267 kts | 352° |
| 2026-05-07 18:43 | 37.68763 | 24.28723 | 4592 ft | 267 kts | 351° |
| 2026-05-07 18:44 | 37.70597 | 24.28385 | 4524 ft | 267 kts | 352° |
| 2026-05-07 18:44 | 37.72438 | 24.28102 | 4466 ft | 266 kts | 353° |
| 2026-05-07 18:44 | 37.74283 | 24.27866 | 4406 ft | 266 kts | 354° |
| 2026-05-07 18:44 | 37.76107 | 24.27658 | 4346 ft | 266 kts | 354° |
| 2026-05-07 18:45 | 37.77949 | 24.27460 | 4291 ft | 266 kts | 354° |
| 2026-05-07 18:45 | 37.79790 | 24.27265 | 4227 ft | 266 kts | 354° |
| 2026-05-07 18:45 | 37.81633 | 24.27070 | 4164 ft | 265 kts | 354° |
| 2026-05-07 18:45 | 37.83466 | 24.26874 | 4100 ft | 265 kts | 354° |
| 2026-05-07 18:46 | 37.85308 | 24.26677 | 4042 ft | 265 kts | 354° |
| 2026-05-07 18:46 | 37.87145 | 24.26480 | 3983 ft | 265 kts | 354° |
| 2026-05-07 18:46 | 37.88983 | 24.26282 | 3923 ft | 265 kts | 354° |
| 2026-05-07 18:46 | 37.90816 | 24.26084 | 3878 ft | 264 kts | 354° |
| 2026-05-07 18:47 | 37.92652 | 24.25887 | 3802 ft | 264 kts | 354° |
| 2026-05-07 18:47 | 37.94480 | 24.25689 | 3721 ft | 263 kts | 354° |
| 2026-05-07 18:47 | 37.96296 | 24.25493 | 3666 ft | 259 kts | 354° |
| 2026-05-07 18:47 | 37.98034 | 24.25306 | 3577 ft | 249 kts | 354° |
| 2026-05-07 18:48 | 37.99707 | 24.25013 | 3474 ft | 238 kts | 345° |
| 2026-05-07 18:48 | 38.01246 | 24.24299 | 3260 ft | 234 kts | 335° |
| 2026-05-07 18:48 | 38.02700 | 24.23475 | 3205 ft | 228 kts | 335° |
| 2026-05-07 18:48 | 38.04171 | 24.22658 | 3178 ft | 230 kts | 336° |
| 2026-05-07 18:49 | 38.05627 | 24.21823 | 3145 ft | 229 kts | 331° |
| 2026-05-07 18:49 | 38.06938 | 24.20675 | 3117 ft | 229 kts | 319° |
| 2026-05-07 18:49 | 38.08158 | 24.19366 | 3086 ft | 229 kts | 320° |
| 2026-05-07 18:49 | 38.09323 | 24.18000 | 3086 ft | 229 kts | 306° |
| 2026-05-07 18:50 | 38.09935 | 24.16168 | 3029 ft | 228 kts | 277° |
| 2026-05-07 18:50 | 38.10087 | 24.14155 | 2956 ft | 228 kts | 275° |
| 2026-05-07 18:50 | 38.10227 | 24.12148 | 2907 ft | 228 kts | 274° |
| 2026-05-07 18:50 | 38.10063 | 24.10198 | 2851 ft | 228 kts | 249° |
| 2026-05-07 18:51 | 38.09251 | 24.08545 | 2840 ft | 214 kts | 228° |
| 2026-05-07 18:51 | 38.08215 | 24.07296 | 2837 ft | 198 kts | 220° |
| 2026-05-07 18:51 | 38.07172 | 24.06251 | 2840 ft | 187 kts | 217° |
| 2026-05-07 18:51 | 38.06148 | 24.05266 | 2846 ft | 174 kts | 217° |
| 2026-05-07 18:52 | 38.05269 | 24.04423 | 2799 ft | 144 kts | 217° |
| 2026-05-07 18:52 | 38.04510 | 24.03695 | 2650 ft | 132 kts | 217° |
| 2026-05-07 18:52 | 38.03772 | 24.02989 | 2487 ft | 132 kts | 217° |
| 2026-05-07 18:52 | 38.03041 | 24.02290 | 2321 ft | 131 kts | 217° |
| 2026-05-07 18:53 | 38.02313 | 24.01594 | 2150 ft | 131 kts | 217° |
| 2026-05-07 18:53 | 38.01587 | 24.00899 | 1983 ft | 131 kts | 217° |
| 2026-05-07 18:53 | 38.00863 | 24.00207 | 1807 ft | 130 kts | 218° |
| 2026-05-07 18:53 | 38.00150 | 23.99526 | 1639 ft | 130 kts | 218° |
| 2026-05-07 18:54 | 37.99428 | 23.98836 | 1464 ft | 130 kts | 218° |
| 2026-05-07 18:54 | 37.98710 | 23.98150 | 1295 ft | 129 kts | 218° |
| 2026-05-07 18:54 | 37.97992 | 23.97464 | 1118 ft | 129 kts | 218° |
| 2026-05-07 18:54 | 37.97276 | 23.96780 | 951 ft | 129 kts | 217° |
| 2026-05-07 18:55 | 37.96560 | 23.96096 | 783 ft | 129 kts | 218° |
| 2026-05-07 18:55 | 37.95846 | 23.95417 | 602 ft | 128 kts | 217° |
| 2026-05-07 18:55 | 37.95132 | 23.94741 | 439 ft | 128 kts | 217° |
| 2026-05-07 18:55 | 37.94420 | 23.94064 | 293 ft | 127 kts | 217° |
| 2026-05-07 18:56 | 37.93800 | 23.93463 | 281 ft | 91 kts | 218° |
| 2026-05-07 18:56 | 37.93366 | 23.93052 | 280 ft | 69 kts | 216° |
| 2026-05-07 18:56 | 37.92971 | 23.92810 | 272 ft | 49 kts | 178° |
| 2026-05-07 18:56 | 37.92894 | 23.92805 | 272 ft | 2 kts | 186° |
| 2026-05-07 18:57 | 37.92858 | 23.92800 | 272 ft | 13 kts | 186° |
| 2026-05-07 18:57 | 37.92750 | 23.92744 | 271 ft | 20 kts | 208° |
| 2026-05-07 18:57 | 37.92636 | 23.92629 | 270 ft | 22 kts | 210° |
| 2026-05-07 18:57 | 37.92541 | 23.92658 | 270 ft | 7 kts | 108° |
| 2026-05-07 18:58 | 37.92608 | 23.92745 | 271 ft | 23 kts | 25° |
| 2026-05-07 18:58 | 37.92746 | 23.92876 | 273 ft | 27 kts | 37° |
| 2026-05-07 18:58 | 37.92898 | 23.93023 | 274 ft | 28 kts | 37° |
| 2026-05-07 18:58 | 37.93059 | 23.93178 | 276 ft | 29 kts | 38° |
| 2026-05-07 18:59 | 37.93217 | 23.93351 | 278 ft | 31 kts | 41° |
| 2026-05-07 18:59 | 37.93365 | 23.93505 | 279 ft | 23 kts | 68° |
| 2026-05-07 18:59 | 37.93322 | 23.93625 | 280 ft | 21 kts | 137° |
| 2026-05-07 18:59 | 37.93219 | 23.93793 | 282 ft | 26 kts | 126° |
| 2026-05-07 19:00 | 37.93105 | 23.93980 | 285 ft | 27 kts | 136° |
| 2026-05-07 19:00 | 37.92993 | 23.93951 | 290 ft | 15 kts | 217° |
| 2026-05-07 19:00 | 37.92898 | 23.93865 | 288 ft | 19 kts | 216° |
| 2026-05-07 19:00 | 37.92794 | 23.93875 | 288 ft | 12 kts | 124° |
| 2026-05-07 19:01 | 37.92717 | 23.93996 | 294 ft | 23 kts | 126° |
| 2026-05-07 19:01 | 37.92608 | 23.94065 | 293 ft | 11 kts | 207° |
| 2026-05-07 19:01 | 37.92611 | 23.93956 | 294 ft | 19 kts | 302° |
| 2026-05-07 19:01 | 37.92706 | 23.93815 | 289 ft | 13 kts | 316° |